Time;durP1;ratioP1;P1;durP2;ratioP2;P2;SDS_P1;SDS_P2;PMS_P1;PMS_P2;Temp;Humidity;BMP_temperature;BMP_pressure;BME280_temperature;BME280_humidity;BME280_pressure;Samples;Min_cycle;Max_cycle;Signal;HPM_P1;HPM_P2
2023/05/26 00:01:28;;;;;;;;;;;9.40;99.90;;;;;;5132901;27;19923;-64
2023/05/26 00:03:53;;;;;;;;;;;9.40;99.90;;;;;;5132793;27;19934;-64
2023/05/26 00:06:20;;;;;;;;;;;9.40;99.90;;;;;;5134112;27;19923;-64
2023/05/26 00:08:49;;;;;;;;;;;9.40;99.90;;;;;;5133811;27;19997;-64
2023/05/26 00:11:15;;;;;;;;;;;9.40;99.90;;;;;;5134013;27;19993;-64
2023/05/26 00:13:41;;;;;;;;;;;9.40;99.90;;;;;;5132761;27;19931;-64
2023/05/26 00:16:08;;;;;;;;;;;9.40;99.90;;;;;;5132457;27;20010;-64
2023/05/26 00:18:33;;;;;;;;;;;9.30;99.90;;;;;;5133968;27;19923;-65
2023/05/26 00:21:00;;;;;;;;;;;9.40;99.90;;;;;;5115381;27;20510;-64
2023/05/26 00:23:26;;;;;;;;;;;9.30;99.90;;;;;;5132696;27;19931;-65
2023/05/26 00:25:52;;;;;;;;;;;9.30;99.90;;;;;;5133230;27;19923;-64
2023/05/26 00:28:17;;;;;;;;;;;9.30;99.90;;;;;;5132446;27;20326;-64
2023/05/26 00:30:43;;;;;;;;;;;9.30;99.90;;;;;;5132663;27;19956;-64
2023/05/26 00:33:08;;;;;;;;;;;9.30;99.90;;;;;;5131931;27;19923;-64
2023/05/26 00:35:34;;;;;;;;;;;9.30;99.90;;;;;;5132339;27;19931;-64
2023/05/26 00:37:59;;;;;;;;;;;9.20;99.90;;;;;;5132099;27;19923;-64
2023/05/26 00:40:25;;;;;;;;;;;9.20;99.90;;;;;;5132904;27;19924;-64
2023/05/26 00:42:51;;;;;;;;;;;9.20;99.90;;;;;;5133106;27;19935;-64
2023/05/26 00:45:16;;;;;;;;;;;9.20;99.90;;;;;;5115092;27;19923;-64
2023/05/26 00:47:42;;;;;;;;;;;9.10;99.90;;;;;;5132088;27;20341;-65
2023/05/26 00:50:08;;;;;;;;;;;9.10;99.90;;;;;;5132824;27;19930;-64
2023/05/26 00:52:34;;;;;;;;;;;9.10;99.90;;;;;;5149244;27;19923;-64
2023/05/26 00:55:00;;;;;;;;;;;9.10;99.90;;;;;;5131475;27;19931;-65
2023/05/26 00:57:27;;;;;;;;;;;9.10;99.90;;;;;;5133212;27;19970;-65
2023/05/26 00:59:57;;;;;;;;;;;9.10;99.90;;;;;;5132844;27;19927;-65
2023/05/26 01:02:22;;;;;;;;;;;9.00;99.90;;;;;;5133162;27;19923;-64
2023/05/26 01:04:52;;;;;;;;;;;9.00;99.90;;;;;;5132097;27;20317;-64
2023/05/26 01:07:18;;;;;;;;;;;9.00;99.90;;;;;;5132919;27;19927;-64
2023/05/26 01:09:44;;;;;;;;;;;9.00;99.90;;;;;;5132127;27;19923;-65
2023/05/26 01:12:13;;;;;;;;;;;9.00;99.90;;;;;;5131441;27;19923;-64
2023/05/26 01:14:44;;;;;;;;;;;8.90;99.90;;;;;;5131753;28;19970;-64
2023/05/26 01:17:12;;;;;;;;;;;8.90;99.90;;;;;;5132555;27;19931;-64
2023/05/26 01:19:46;;;;;;;;;;;8.90;99.90;;;;;;5131836;28;19927;-65
2023/05/26 01:22:11;;;;;;;;;;;8.90;99.90;;;;;;5131351;28;19927;-64
2023/05/26 01:24:45;;;;;;;;;;;8.90;99.90;;;;;;5132910;28;19930;-64
2023/05/26 01:27:30;;;;;;;;;;;8.90;99.90;;;;;;5132662;27;19983;-66
2023/05/26 01:29:55;;;;;;;;;;;8.90;99.90;;;;;;5131691;28;19976;-65
2023/05/26 01:32:21;;;;;;;;;;;8.80;99.90;;;;;;5114413;28;19931;-67
2023/05/26 01:34:47;;;;;;;;;;;8.80;99.90;;;;;;5131430;28;20395;-66
2023/05/26 01:37:12;;;;;;;;;;;8.80;99.90;;;;;;5132440;27;19923;-65
2023/05/26 01:39:38;;;;;;;;;;;8.80;99.90;;;;;;5114287;28;19973;-64
2023/05/26 01:42:12;;;;;;;;;;;8.80;99.90;;;;;;5130921;28;19947;-64
2023/05/26 01:44:41;;;;;;;;;;;8.80;99.90;;;;;;5132830;27;19924;-64
2023/05/26 01:47:06;;;;;;;;;;;8.80;99.90;;;;;;5132362;27;19930;-66
2023/05/26 01:49:32;;;;;;;;;;;8.80;99.90;;;;;;5131415;28;19924;-66
2023/05/26 01:52:00;;;;;;;;;;;8.80;99.90;;;;;;5114267;28;20345;-66
2023/05/26 01:54:27;;;;;;;;;;;8.80;99.90;;;;;;5131335;28;19976;-64
2023/05/26 01:56:53;;;;;;;;;;;8.80;99.90;;;;;;5134195;27;19997;-65
2023/05/26 01:59:20;;;;;;;;;;;8.80;99.90;;;;;;5135118;27;19930;-65
2023/05/26 02:01:46;;;;;;;;;;;8.80;99.90;;;;;;5118001;27;19923;-65
2023/05/26 02:04:12;;;;;;;;;;;8.80;99.90;;;;;;5136103;27;19935;-65
2023/05/26 02:06:38;;;;;;;;;;;8.70;99.90;;;;;;5136446;27;19923;-64
2023/05/26 02:09:05;;;;;;;;;;;8.70;99.90;;;;;;5135859;27;20268;-65
2023/05/26 02:11:31;;;;;;;;;;;8.70;99.90;;;;;;5118134;27;19931;-65
2023/05/26 02:13:56;;;;;;;;;;;8.70;99.90;;;;;;5136443;27;20284;-64
2023/05/26 02:16:22;;;;;;;;;;;8.60;99.90;;;;;;5134813;27;19980;-65
2023/05/26 02:18:48;;;;;;;;;;;8.60;99.90;;;;;;5135204;27;20276;-65
2023/05/26 02:21:14;;;;;;;;;;;8.60;99.90;;;;;;5135753;27;19923;-64
2023/05/26 02:23:41;;;;;;;;;;;8.60;99.90;;;;;;5135137;27;19927;-64
2023/05/26 02:26:07;;;;;;;;;;;8.60;99.90;;;;;;5135706;27;20014;-65
2023/05/26 02:28:32;;;;;;;;;;;8.60;99.90;;;;;;5136071;27;20042;-65
2023/05/26 02:30:58;;;;;;;;;;;8.60;99.90;;;;;;5134696;27;19923;-65
2023/05/26 02:33:23;;;;;;;;;;;8.50;99.90;;;;;;5135743;27;20485;-65
2023/05/26 02:35:49;;;;;;;;;;;8.50;99.90;;;;;;5134832;27;19923;-64
2023/05/26 02:38:15;;;;;;;;;;;8.60;99.90;;;;;;5134247;27;20028;-64
2023/05/26 02:40:40;;;;;;;;;;;8.60;99.90;;;;;;5134321;27;20469;-64
2023/05/26 02:43:06;;;;;;;;;;;8.60;99.90;;;;;;5134063;27;19924;-67
2023/05/26 02:45:32;;;;;;;;;;;8.60;99.90;;;;;;5134294;27;20026;-64
2023/05/26 02:47:57;;;;;;;;;;;8.50;99.90;;;;;;5117495;27;20044;-64
2023/05/26 02:50:23;;;;;;;;;;;8.50;99.90;;;;;;5134043;27;19930;-64
2023/05/26 02:52:48;;;;;;;;;;;8.50;99.90;;;;;;5134202;27;19930;-65
2023/05/26 02:55:14;;;;;;;;;;;8.50;99.90;;;;;;5133994;27;19923;-65
2023/05/26 02:57:40;;;;;;;;;;;8.60;99.90;;;;;;5133779;27;20426;-64
2023/05/26 03:00:12;;;;;;;;;;;8.60;99.90;;;;;;5135267;27;20399;-65
2023/05/26 03:02:38;;;;;;;;;;;8.50;99.90;;;;;;5134082;27;20269;-64
2023/05/26 03:05:04;;;;;;;;;;;8.50;99.90;;;;;;5133856;27;19977;-64
2023/05/26 03:07:30;;;;;;;;;;;8.50;99.90;;;;;;5134685;27;20568;-65
2023/05/26 03:09:55;;;;;;;;;;;8.50;99.90;;;;;;5133734;27;19977;-64
2023/05/26 03:12:21;;;;;;;;;;;8.50;99.90;;;;;;5134359;27;20333;-64
2023/05/26 03:14:46;;;;;;;;;;;8.50;99.90;;;;;;5134504;27;19935;-64
2023/05/26 03:17:12;;;;;;;;;;;8.50;99.90;;;;;;5133349;27;19976;-65
2023/05/26 03:19:37;;;;;;;;;;;8.50;99.90;;;;;;5134665;27;20034;-67
2023/05/26 03:22:03;;;;;;;;;;;8.50;99.90;;;;;;5116330;27;20117;-65
2023/05/26 03:24:29;;;;;;;;;;;8.50;99.90;;;;;;5133828;27;20399;-64
2023/05/26 03:26:54;;;;;;;;;;;8.40;99.90;;;;;;5133507;27;19923;-65
2023/05/26 03:29:20;;;;;;;;;;;8.50;99.90;;;;;;5116217;27;20376;-65
2023/05/26 03:31:46;;;;;;;;;;;8.50;99.90;;;;;;5134701;27;19923;-65
2023/05/26 03:34:11;;;;;;;;;;;8.50;99.90;;;;;;5116172;27;20281;-67
2023/05/26 03:36:38;;;;;;;;;;;8.50;99.90;;;;;;5134482;27;20427;-65
2023/05/26 03:39:05;;;;;;;;;;;8.50;99.90;;;;;;5134341;27;19967;-65
2023/05/26 03:41:31;;;;;;;;;;;8.50;99.90;;;;;;5134041;27;19924;-64
2023/05/26 03:43:57;;;;;;;;;;;8.50;99.90;;;;;;5134321;27;19930;-64
2023/05/26 03:46:23;;;;;;;;;;;8.50;99.90;;;;;;5133027;27;20288;-65
2023/05/26 03:48:48;;;;;;;;;;;8.50;99.90;;;;;;5133283;27;19997;-65
2023/05/26 03:51:14;;;;;;;;;;;8.40;99.90;;;;;;5134328;27;19946;-68
2023/05/26 03:53:41;;;;;;;;;;;8.40;99.90;;;;;;5132723;27;19923;-64
2023/05/26 03:56:07;;;;;;;;;;;8.40;99.90;;;;;;5133212;27;19979;-64
2023/05/26 03:58:33;;;;;;;;;;;8.50;99.90;;;;;;5132363;27;19923;-65
2023/05/26 04:00:59;;;;;;;;;;;8.50;99.90;;;;;;5134107;27;19928;-64
2023/05/26 04:03:26;;;;;;;;;;;8.50;99.90;;;;;;5133734;27;19964;-64
2023/05/26 04:05:52;;;;;;;;;;;8.50;99.90;;;;;;5133645;27;20384;-65
2023/05/26 04:08:17;;;;;;;;;;;8.50;99.90;;;;;;5132402;27;19930;-68
2023/05/26 04:10:43;;;;;;;;;;;8.50;99.90;;;;;;5133940;27;19923;-65
2023/05/26 04:13:09;;;;;;;;;;;8.60;99.90;;;;;;5132348;27;20387;-64
2023/05/26 04:15:34;;;;;;;;;;;8.60;99.90;;;;;;5132340;27;20015;-65
2023/05/26 04:18:00;;;;;;;;;;;8.60;99.90;;;;;;5133405;27;19931;-65
2023/05/26 04:20:26;;;;;;;;;;;8.70;99.90;;;;;;5114425;27;19949;-65
2023/05/26 04:22:51;;;;;;;;;;;8.70;99.90;;;;;;5132650;27;20337;-65
2023/05/26 04:25:17;;;;;;;;;;;8.80;99.90;;;;;;5133279;27;19924;-65
2023/05/26 04:27:42;;;;;;;;;;;8.80;99.90;;;;;;5132216;27;19924;-65
2023/05/26 04:30:08;;;;;;;;;;;8.90;99.90;;;;;;5133672;27;19930;-64
2023/05/26 04:32:35;;;;;;;;;;;9.00;99.90;;;;;;5115075;27;19971;-65
2023/05/26 04:35:01;;;;;;;;;;;9.00;99.90;;;;;;5132192;27;19934;-64
2023/05/26 04:37:27;;;;;;;;;;;9.10;99.90;;;;;;5131747;27;19923;-64
2023/05/26 04:39:52;;;;;;;;;;;9.30;99.90;;;;;;5132210;27;19928;-64
2023/05/26 04:42:19;;;;;;;;;;;9.40;99.90;;;;;;5132287;27;19971;-65
2023/05/26 04:44:45;;;;;;;;;;;9.60;99.90;;;;;;5132306;27;20359;-64
2023/05/26 04:47:11;;;;;;;;;;;9.70;99.90;;;;;;5133424;27;19927;-64
2023/05/26 04:49:37;;;;;;;;;;;9.80;99.90;;;;;;5131843;27;19923;-66
2023/05/26 04:52:02;;;;;;;;;;;9.90;99.90;;;;;;5132416;27;19924;-64
2023/05/26 04:54:28;;;;;;;;;;;10.10;99.90;;;;;;5132866;27;20334;-64
2023/05/26 04:56:54;;;;;;;;;;;10.20;99.90;;;;;;5133172;27;20145;-64
2023/05/26 04:59:23;;;;;;;;;;;10.30;99.90;;;;;;5131915;27;19924;-64
2023/05/26 05:01:49;;;;;;;;;;;10.70;99.90;;;;;;5131944;27;20010;-64
2023/05/26 05:04:15;;;;;;;;;;;11.00;99.90;;;;;;5133214;27;19996;-65
2023/05/26 05:06:41;;;;;;;;;;;11.40;99.90;;;;;;5114591;27;19927;-65
2023/05/26 05:09:07;;;;;;;;;;;11.70;99.90;;;;;;5133079;27;19930;-65
2023/05/26 05:11:33;;;;;;;;;;;12.00;99.90;;;;;;5132599;27;19971;-65
2023/05/26 05:13:59;;;;;;;;;;;12.40;99.90;;;;;;5166523;27;19978;-63
2023/05/26 05:16:24;;;;;;;;;;;13.00;99.90;;;;;;5133204;28;19923;-64
2023/05/26 05:18:50;;;;;;;;;;;13.60;99.90;;;;;;5131684;28;19930;-65
2023/05/26 05:21:16;;;;;;;;;;;14.00;99.90;;;;;;5132184;28;19927;-64
2023/05/26 05:23:41;;;;;;;;;;;14.40;99.90;;;;;;5132444;27;19928;-65
2023/05/26 05:26:07;;;;;;;;;;;14.70;99.90;;;;;;5133071;28;19931;-64
2023/05/26 05:28:33;;;;;;;;;;;14.80;99.90;;;;;;5131321;28;19996;-65
2023/05/26 05:30:58;;;;;;;;;;;15.00;99.90;;;;;;5132082;27;20419;-65
2023/05/26 05:33:24;;;;;;;;;;;15.30;99.90;;;;;;5136186;27;19924;-64
2023/05/26 05:35:50;;;;;;;;;;;15.80;99.90;;;;;;5137175;27;19920;-64
2023/05/26 05:38:15;;;;;;;;;;;16.20;99.90;;;;;;5136171;27;19951;-64
2023/05/26 05:40:41;;;;;;;;;;;16.50;99.90;;;;;;5136505;27;20018;-63
2023/05/26 05:43:06;;;;;;;;;;;16.80;99.90;;;;;;5136961;27;19931;-63
2023/05/26 05:45:32;;;;;;;;;;;16.90;99.90;;;;;;5136497;27;20012;-64
2023/05/26 05:47:58;;;;;;;;;;;16.80;99.90;;;;;;5135777;27;19924;-64
2023/05/26 05:50:23;;;;;;;;;;;16.60;99.90;;;;;;5135855;27;19924;-63
2023/05/26 05:52:49;;;;;;;;;;;16.60;99.90;;;;;;5135107;27;19924;-63
2023/05/26 05:55:15;;;;;;;;;;;16.70;99.90;;;;;;5136812;27;20330;-64
2023/05/26 05:57:40;;;;;;;;;;;16.50;99.90;;;;;;5136294;27;20289;-64
2023/05/26 06:00:09;;;;;;;;;;;16.20;99.90;;;;;;5135300;27;20023;-64
2023/05/26 06:02:35;;;;;;;;;;;15.40;99.90;;;;;;5135354;27;20390;-65
2023/05/26 06:05:01;;;;;;;;;;;15.00;99.90;;;;;;5118393;27;19927;-64
2023/05/26 06:07:27;;;;;;;;;;;15.00;99.90;;;;;;5135135;27;19930;-64
2023/05/26 06:09:52;;;;;;;;;;;15.40;99.90;;;;;;5136091;27;20225;-64
2023/05/26 06:12:18;;;;;;;;;;;15.70;99.90;;;;;;5135058;27;20395;-64
2023/05/26 06:14:43;;;;;;;;;;;16.40;99.90;;;;;;5135746;27;20284;-65
2023/05/26 06:17:09;;;;;;;;;;;16.90;99.90;;;;;;5135437;27;19986;-65
2023/05/26 06:19:35;;;;;;;;;;;17.30;99.90;;;;;;5136402;27;19924;-67
2023/05/26 06:22:00;;;;;;;;;;;17.80;99.90;;;;;;5134865;27;20384;-64
2023/05/26 06:24:26;;;;;;;;;;;18.10;99.30;;;;;;5117874;27;19931;-65
2023/05/26 06:26:52;;;;;;;;;;;18.30;99.00;;;;;;5134985;27;19967;-64
2023/05/26 06:29:17;;;;;;;;;;;18.70;98.40;;;;;;5136159;27;19923;-65
2023/05/26 06:31:43;;;;;;;;;;;19.10;98.30;;;;;;5117285;27;19923;-66
2023/05/26 06:34:09;;;;;;;;;;;19.50;97.10;;;;;;5134825;27;20407;-66
2023/05/26 06:36:35;;;;;;;;;;;19.80;96.70;;;;;;5136138;27;19923;-65
2023/05/26 06:39:01;;;;;;;;;;;20.00;97.50;;;;;;5135782;27;19928;-65
2023/05/26 06:41:27;;;;;;;;;;;20.40;96.10;;;;;;5099079;28;19923;-66
2023/05/26 06:43:52;;;;;;;;;;;20.80;95.30;;;;;;5132896;27;19928;-65
2023/05/26 06:46:18;;;;;;;;;;;20.70;94.20;;;;;;5133602;28;20342;-65
2023/05/26 06:48:44;;;;;;;;;;;20.80;93.90;;;;;;5134242;28;19963;-65
2023/05/26 06:51:09;;;;;;;;;;;21.40;93.60;;;;;;5133321;28;19927;-64
2023/05/26 06:53:37;;;;;;;;;;;21.40;93.00;;;;;;5134514;28;19976;-64
2023/05/26 06:56:03;;;;;;;;;;;21.40;93.40;;;;;;5133915;27;19966;-65
2023/05/26 06:58:28;;;;;;;;;;;21.90;92.40;;;;;;5150683;27;19923;-65
2023/05/26 07:00:55;;;;;;;;;;;22.00;91.90;;;;;;5133976;28;19934;-66
2023/05/26 07:03:20;;;;;;;;;;;21.60;90.70;;;;;;5116513;28;19923;-65
2023/05/26 07:05:46;;;;;;;;;;;21.30;91.40;;;;;;5132883;28;19923;-66
2023/05/26 07:08:12;;;;;;;;;;;21.10;91.20;;;;;;5134625;27;19924;-66
2023/05/26 07:10:37;;;;;;;;;;;21.10;91.70;;;;;;5116430;28;19931;-67
2023/05/26 07:13:03;;;;;;;;;;;21.10;91.10;;;;;;5134189;28;20382;-66
2023/05/26 07:15:29;;;;;;;;;;;21.30;91.00;;;;;;5167797;27;20212;-64
2023/05/26 07:17:54;;;;;;;;;;;21.30;90.30;;;;;;5132705;28;19958;-65
2023/05/26 07:20:20;;;;;;;;;;;21.40;90.00;;;;;;5134248;28;19923;-65
2023/05/26 07:22:46;;;;;;;;;;;21.30;89.80;;;;;;5115576;28;20014;-65
2023/05/26 07:25:11;;;;;;;;;;;21.50;90.20;;;;;;5132763;28;19939;-65
2023/05/26 07:27:37;;;;;;;;;;;21.60;89.30;;;;;;5133513;28;19923;-64
2023/05/26 07:30:02;;;;;;;;;;;21.50;90.30;;;;;;5132132;28;20283;-65
2023/05/26 07:32:28;;;;;;;;;;;21.70;90.50;;;;;;5115758;28;19981;-66
2023/05/26 07:34:53;;;;;;;;;;;21.90;89.70;;;;;;5132386;28;19923;-65
2023/05/26 07:37:19;;;;;;;;;;;22.10;90.50;;;;;;5132585;28;19923;-66
2023/05/26 07:39:45;;;;;;;;;;;22.30;89.40;;;;;;5066538;27;1851931;-67
2023/05/26 07:42:10;;;;;;;;;;;22.80;90.40;;;;;;5134674;27;19928;-67
2023/05/26 07:44:36;;;;;;;;;;;23.20;88.00;;;;;;5116251;27;20347;-67
2023/05/26 07:47:01;;;;;;;;;;;23.50;87.90;;;;;;5133267;27;20010;-67
2023/05/26 07:49:27;;;;;;;;;;;23.10;85.90;;;;;;5133311;27;19924;-67
2023/05/26 07:51:53;;;;;;;;;;;22.80;85.70;;;;;;5134661;27;19923;-67
2023/05/26 07:54:18;;;;;;;;;;;22.50;86.00;;;;;;5132654;27;19927;-67
2023/05/26 07:56:44;;;;;;;;;;;22.30;86.60;;;;;;5133709;27;19923;-67
2023/05/26 07:59:09;;;;;;;;;;;22.50;86.40;;;;;;5133343;27;20361;-66
2023/05/26 08:01:35;;;;;;;;;;;22.70;86.30;;;;;;5133271;27;19924;-68
2023/05/26 08:04:01;;;;;;;;;;;22.80;86.50;;;;;;5133286;27;20174;-68
2023/05/26 08:06:26;;;;;;;;;;;23.20;85.90;;;;;;5134548;27;19926;-67
2023/05/26 08:08:53;;;;;;;;;;;23.30;86.80;;;;;;5116086;27;20026;-67
2023/05/26 08:11:18;;;;;;;;;;;23.30;86.90;;;;;;5133551;27;19924;-67
2023/05/26 08:13:44;;;;;;;;;;;22.80;85.70;;;;;;5116166;27;19930;-66
2023/05/26 08:16:10;;;;;;;;;;;22.60;85.60;;;;;;5134193;27;19924;-66
2023/05/26 08:18:35;;;;;;;;;;;22.90;86.10;;;;;;5132891;27;19923;-65
2023/05/26 08:21:01;;;;;;;;;;;23.10;85.20;;;;;;5134110;27;20075;-66
2023/05/26 08:23:26;;;;;;;;;;;23.50;85.00;;;;;;5133871;27;19924;-66
2023/05/26 08:25:52;;;;;;;;;;;23.70;84.40;;;;;;5133611;27;19923;-65
2023/05/26 08:28:17;;;;;;;;;;;23.40;83.30;;;;;;5134024;27;19924;-66
2023/05/26 08:30:44;;;;;;;;;;;23.30;83.70;;;;;;5133953;27;19932;-66
2023/05/26 08:33:10;;;;;;;;;;;23.00;83.70;;;;;;5133863;27;19923;-66
2023/05/26 08:35:35;;;;;;;;;;;23.00;85.70;;;;;;5132776;27;19976;-67
2023/05/26 08:38:01;;;;;;;;;;;23.50;85.80;;;;;;5132700;27;19934;-66
2023/05/26 08:40:27;;;;;;;;;;;23.70;83.90;;;;;;5133416;27;19927;-66
2023/05/26 08:42:54;;;;;;;;;;;23.50;82.50;;;;;;5132489;27;19955;-66
2023/05/26 08:45:20;;;;;;;;;;;22.80;82.60;;;;;;5132279;27;19924;-66
2023/05/26 08:47:47;;;;;;;;;;;23.00;83.10;;;;;;5133010;27;19930;-66
2023/05/26 08:50:13;;;;;;;;;;;22.90;83.30;;;;;;5115585;27;19946;-66
2023/05/26 08:52:39;;;;;;;;;;;22.60;83.70;;;;;;5133729;27;19923;-66
2023/05/26 08:55:05;;;;;;;;;;;22.60;84.20;;;;;;5114862;27;20014;-66
2023/05/26 08:57:31;;;;;;;;;;;22.90;84.00;;;;;;5167229;27;19971;-65
2023/05/26 08:59:57;;;;;;;;;;;23.00;84.70;;;;;;5132457;27;20022;-66
2023/05/26 09:02:22;;;;;;;;;;;23.10;84.70;;;;;;5133109;27;19931;-66
2023/05/26 09:04:48;;;;;;;;;;;23.50;83.70;;;;;;5133327;27;20014;-66
2023/05/26 09:07:13;;;;;;;;;;;23.70;83.40;;;;;;5131734;27;19929;-66
2023/05/26 09:09:40;;;;;;;;;;;23.90;82.60;;;;;;5133401;27;19945;-66
2023/05/26 09:12:09;;;;;;;;;;;23.40;83.90;;;;;;5131692;27;20352;-66
2023/05/26 09:14:35;;;;;;;;;;;23.20;83.40;;;;;;5133401;27;19974;-67
2023/05/26 09:17:02;;;;;;;;;;;23.10;82.90;;;;;;5133129;27;19970;-67
2023/05/26 09:19:27;;;;;;;;;;;23.10;83.50;;;;;;5133276;28;19924;-67
2023/05/26 09:21:53;;;;;;;;;;;22.90;83.50;;;;;;5132206;28;19976;-66
2023/05/26 09:24:20;;;;;;;;;;;23.00;84.90;;;;;;5131551;28;20287;-67
2023/05/26 09:26:46;;;;;;;;;;;23.20;84.20;;;;;;5132362;28;20338;-66
2023/05/26 09:29:12;;;;;;;;;;;23.20;83.70;;;;;;5132030;28;19924;-66
2023/05/26 09:31:42;;;;;;;;;;;23.30;84.00;;;;;;5131986;28;19952;-66
2023/05/26 09:34:08;;;;;;;;;;;22.80;83.60;;;;;;5131631;28;19936;-66
2023/05/26 09:36:35;;;;;;;;;;;22.30;84.30;;;;;;5131957;28;20444;-66
2023/05/26 09:39:01;;;;;;;;;;;21.90;85.30;;;;;;5132362;28;19923;-66
2023/05/26 09:41:36;;;;;;;;;;;21.30;84.90;;;;;;5131491;28;19923;-67
2023/05/26 09:44:12;;;;;;;;;;;21.20;85.40;;;;;;5133100;27;20252;-67
2023/05/26 09:46:39;;;;;;;;;;;21.30;86.40;;;;;;5115128;28;19923;-65
2023/05/26 09:49:12;;;;;;;;;;;20.80;86.70;;;;;;5133090;27;19923;-70
2023/05/26 09:51:39;;;;;;;;;;;20.40;87.20;;;;;;5115121;28;19971;-66
2023/05/26 09:54:05;;;;;;;;;;;20.20;87.20;;;;;;5133279;27;19924;-66
2023/05/26 09:56:32;;;;;;;;;;;20.10;87.80;;;;;;5131616;28;19927;-66
2023/05/26 09:58:59;;;;;;;;;;;19.70;88.50;;;;;;5131850;28;19982;-65
2023/05/26 10:01:25;;;;;;;;;;;19.60;88.30;;;;;;5131836;28;19972;-66
2023/05/26 10:03:51;;;;;;;;;;;19.40;89.20;;;;;;5131945;28;19927;-66
2023/05/26 10:06:17;;;;;;;;;;;19.30;89.10;;;;;;5114485;28;19924;-65
2023/05/26 10:08:45;;;;;;;;;;;19.40;88.90;;;;;;5131697;28;20021;-65
2023/05/26 10:11:11;;;;;;;;;;;19.50;88.50;;;;;;5131353;28;19927;-66
2023/05/26 10:13:37;;;;;;;;;;;19.50;89.30;;;;;;5131394;28;19981;-65
2023/05/26 10:16:04;;;;;;;;;;;19.60;89.30;;;;;;5131373;28;19974;-65
2023/05/26 10:18:29;;;;;;;;;;;19.60;89.10;;;;;;5134851;27;19924;-64
2023/05/26 10:20:56;;;;;;;;;;;19.80;89.10;;;;;;5118636;27;20384;-64
2023/05/26 10:23:24;;;;;;;;;;;19.70;88.90;;;;;;5136395;27;19924;-64
2023/05/26 10:26:01;;;;;;;;;;;19.70;89.10;;;;;;5136236;27;19924;-65
2023/05/26 10:28:44;;;;;;;;;;;19.50;88.30;;;;;;5136201;27;19924;-65
2023/05/26 10:31:09;;;;;;;;;;;19.40;88.90;;;;;;5152607;27;19920;-67
2023/05/26 10:33:38;;;;;;;;;;;19.20;89.20;;;;;;5118247;27;19931;-66
2023/05/26 10:36:08;;;;;;;;;;;19.10;90.00;;;;;;5135422;27;20265;-64
2023/05/26 10:38:37;;;;;;;;;;;19.20;90.20;;;;;;5135957;27;19924;-64
2023/05/26 10:41:03;;;;;;;;;;;19.20;89.70;;;;;;5135926;27;19923;-64
2023/05/26 10:43:28;;;;;;;;;;;19.20;90.30;;;;;;5135734;27;19923;-64
2023/05/26 10:45:58;;;;;;;;;;;19.40;90.30;;;;;;5135217;27;20022;-64
2023/05/26 10:48:34;;;;;;;;;;;19.30;90.30;;;;;;5134684;27;19976;-64
2023/05/26 10:51:00;;;;;;;;;;;19.30;90.80;;;;;;5134990;27;20014;-64
2023/05/26 10:53:33;;;;;;;;;;;19.50;90.30;;;;;;5135631;27;20019;-64
2023/05/26 10:56:02;;;;;;;;;;;19.50;90.30;;;;;;5135621;27;20377;-66
2023/05/26 10:58:35;;;;;;;;;;;19.40;90.70;;;;;;5134437;27;19923;-66
2023/05/26 11:01:02;;;;;;;;;;;19.10;90.60;;;;;;5135684;27;20334;-65
2023/05/26 11:03:46;;;;;;;;;;;18.90;90.80;;;;;;5135481;27;19976;-65
2023/05/26 11:06:12;;;;;;;;;;;18.90;91.30;;;;;;5117369;27;19972;-64
2023/05/26 11:08:41;;;;;;;;;;;18.80;91.70;;;;;;5135297;27;20290;-65
2023/05/26 11:11:08;;;;;;;;;;;18.90;91.50;;;;;;5135554;27;19930;-64
2023/05/26 11:13:57;;;;;;;;;;;18.90;92.00;;;;;;5134087;27;20456;-64
2023/05/26 11:16:23;;;;;;;;;;;18.80;91.70;;;;;;5133852;27;19923;-64
2023/05/26 11:18:50;;;;;;;;;;;18.90;92.20;;;;;;5135312;27;19931;-65
2023/05/26 11:21:24;;;;;;;;;;;19.00;91.60;;;;;;5117284;27;19924;-64
2023/05/26 11:23:54;;;;;;;;;;;19.20;91.50;;;;;;5134310;27;19924;-64
2023/05/26 11:26:22;;;;;;;;;;;19.20;91.30;;;;;;5116915;27;19924;-64
2023/05/26 11:28:48;;;;;;;;;;;19.20;91.60;;;;;;5134124;27;19924;-63
2023/05/26 11:31:18;;;;;;;;;;;19.10;91.60;;;;;;5134203;27;20018;-64
2023/05/26 11:33:45;;;;;;;;;;;19.00;91.50;;;;;;5116779;27;19924;-64
2023/05/26 11:36:11;;;;;;;;;;;19.00;91.60;;;;;;5134094;27;19923;-65
2023/05/26 11:38:37;;;;;;;;;;;18.90;91.90;;;;;;5133775;27;20026;-65
2023/05/26 11:41:04;;;;;;;;;;;18.80;91.80;;;;;;5133675;27;19998;-65
2023/05/26 11:43:30;;;;;;;;;;;18.90;92.00;;;;;;5134695;27;19968;-65
2023/05/26 11:46:00;;;;;;;;;;;19.10;91.90;;;;;;5133801;27;19927;-65
2023/05/26 11:48:30;;;;;;;;;;;19.20;91.90;;;;;;5133789;27;19923;-65
2023/05/26 11:50:55;;;;;;;;;;;19.20;92.10;;;;;;5134785;27;19923;-64
2023/05/26 11:53:21;;;;;;;;;;;19.10;92.30;;;;;;5133762;27;19979;-67
2023/05/26 11:55:46;;;;;;;;;;;18.90;92.20;;;;;;5133697;27;19927;-64
2023/05/26 11:58:13;;;;;;;;;;;18.90;92.20;;;;;;5133542;27;19923;-65
2023/05/26 12:00:38;;;;;;;;;;;18.80;92.30;;;;;;5132761;27;20558;-67
2023/05/26 12:03:04;;;;;;;;;;;18.70;92.10;;;;;;5116372;27;20034;-65
2023/05/26 12:05:30;;;;;;;;;;;18.80;91.60;;;;;;5133140;27;20292;-66
2023/05/26 12:08:05;;;;;;;;;;;18.80;91.20;;;;;;5134164;27;20006;-65
2023/05/26 12:10:31;;;;;;;;;;;18.90;91.70;;;;;;5132800;27;20018;-65
2023/05/26 12:12:57;;;;;;;;;;;19.00;91.80;;;;;;5116029;27;20018;-65
2023/05/26 12:15:23;;;;;;;;;;;19.10;91.40;;;;;;5132818;27;20015;-66
2023/05/26 12:17:53;;;;;;;;;;;19.20;91.80;;;;;;5132776;27;19931;-66
2023/05/26 12:20:19;;;;;;;;;;;19.00;91.80;;;;;;5133892;27;19930;-66
2023/05/26 12:22:44;;;;;;;;;;;18.90;92.30;;;;;;5133583;27;19923;-66
2023/05/26 12:25:10;;;;;;;;;;;18.70;92.00;;;;;;5116001;27;19975;-67
2023/05/26 12:27:37;;;;;;;;;;;18.60;91.60;;;;;;5133702;27;20348;-66
2023/05/26 12:30:21;;;;;;;;;;;18.40;92.10;;;;;;5132507;27;20368;-67
2023/05/26 12:32:48;;;;;;;;;;;18.30;92.40;;;;;;5132518;27;19920;-66
2023/05/26 12:35:14;;;;;;;;;;;18.40;92.20;;;;;;5115369;27;19930;-66
2023/05/26 12:37:39;;;;;;;;;;;18.40;91.40;;;;;;5132597;27;19963;-66
2023/05/26 12:40:06;;;;;;;;;;;18.50;91.90;;;;;;5133322;27;20353;-67
2023/05/26 12:42:31;;;;;;;;;;;18.40;93.00;;;;;;5131911;27;19977;-67
2023/05/26 12:44:57;;;;;;;;;;;18.20;93.30;;;;;;5132489;27;19927;-67
2023/05/26 12:47:23;;;;;;;;;;;18.20;93.50;;;;;;5132614;27;20331;-66
2023/05/26 12:49:48;;;;;;;;;;;18.10;94.30;;;;;;5132984;27;19923;-66
2023/05/26 12:52:14;;;;;;;;;;;18.20;94.50;;;;;;5167109;27;19936;-67
2023/05/26 12:54:39;;;;;;;;;;;18.20;94.00;;;;;;5114811;27;19931;-68
2023/05/26 12:57:05;;;;;;;;;;;18.10;93.60;;;;;;5132412;27;19930;-68
2023/05/26 12:59:31;;;;;;;;;;;18.20;94.40;;;;;;5115012;27;19927;-70
2023/05/26 13:01:57;;;;;;;;;;;18.20;94.80;;;;;;5132387;27;19945;-67
2023/05/26 13:04:23;;;;;;;;;;;18.20;94.90;;;;;;5132088;27;20410;-67
2023/05/26 13:06:51;;;;;;;;;;;18.20;94.50;;;;;;5131731;27;19923;-66
2023/05/26 13:09:17;;;;;;;;;;;18.30;94.80;;;;;;5132264;27;19931;-67
2023/05/26 13:11:43;;;;;;;;;;;18.30;95.00;;;;;;5131594;27;19927;-66
2023/05/26 13:14:09;;;;;;;;;;;18.50;94.70;;;;;;5131675;27;20332;-66
2023/05/26 13:16:36;;;;;;;;;;;18.40;94.10;;;;;;5097765;27;19931;-67
2023/05/26 13:19:02;;;;;;;;;;;18.30;94.50;;;;;;5115322;28;19924;-66
2023/05/26 13:21:29;;;;;;;;;;;18.30;94.80;;;;;;5132125;28;19931;-67
2023/05/26 13:23:55;;;;;;;;;;;18.40;94.40;;;;;;5131521;28;19927;-67
2023/05/26 13:26:21;;;;;;;;;;;18.40;94.40;;;;;;5131959;28;20015;-66
2023/05/26 13:28:48;;;;;;;;;;;18.30;94.70;;;;;;5097959;28;19962;-67
2023/05/26 13:31:14;;;;;;;;;;;18.20;94.90;;;;;;5133219;27;20298;-67
2023/05/26 13:33:40;;;;;;;;;;;18.10;95.40;;;;;;5132624;27;19924;-68
2023/05/26 13:36:06;;;;;;;;;;;18.10;95.10;;;;;;5132008;28;19970;-67
2023/05/26 13:38:32;;;;;;;;;;;17.80;95.00;;;;;;5115025;28;19923;-67
2023/05/26 13:40:58;;;;;;;;;;;17.80;95.20;;;;;;5107413;28;19969;-68
2023/05/26 13:43:24;;;;;;;;;;;17.60;94.10;;;;;;5165517;27;19923;-67
2023/05/26 13:45:50;;;;;;;;;;;17.50;93.70;;;;;;5130696;28;19946;-67
2023/05/26 13:48:16;;;;;;;;;;;17.50;94.10;;;;;;5114654;28;19924;-66
2023/05/26 13:50:41;;;;;;;;;;;17.50;94.20;;;;;;5114048;28;19924;-67
2023/05/26 13:53:07;;;;;;;;;;;17.60;94.50;;;;;;5116267;27;19930;-68
2023/05/26 13:55:33;;;;;;;;;;;17.70;94.70;;;;;;5117058;27;20029;-66
2023/05/26 13:57:59;;;;;;;;;;;17.70;94.10;;;;;;5133968;27;19958;-67
2023/05/26 14:00:24;;;;;;;;;;;17.60;94.60;;;;;;5135135;27;19970;-67
2023/05/26 14:02:50;;;;;;;;;;;17.70;94.40;;;;;;5133821;27;19927;-67
2023/05/26 14:05:16;;;;;;;;;;;17.90;95.10;;;;;;5134778;27;20418;-67
2023/05/26 14:07:42;;;;;;;;;;;18.00;95.10;;;;;;5117842;27;19923;-67
2023/05/26 14:10:08;;;;;;;;;;;18.20;94.20;;;;;;5135111;27;19980;-67
2023/05/26 14:12:34;;;;;;;;;;;18.10;94.00;;;;;;5134956;27;20360;-67
2023/05/26 14:14:59;;;;;;;;;;;17.90;93.50;;;;;;5134813;27;20058;-67
2023/05/26 14:17:25;;;;;;;;;;;17.70;93.50;;;;;;5135192;27;20380;-67